sensor_id;sensor_type;location;lat;lon;timestamp;P1;durP1;ratioP1;P2;durP2;ratioP2
71202;SDS011;58929;47.490;19.090;2022-10-22T00:00:56;16.00;;;9.88;;
71202;SDS011;58929;47.490;19.090;2022-10-22T00:03:24;17.77;;;9.77;;
71202;SDS011;58929;47.490;19.090;2022-10-22T00:05:52;16.50;;;9.13;;
71202;SDS011;58929;47.490;19.090;2022-10-22T00:10:49;17.45;;;8.85;;
71202;SDS011;58929;47.490;19.090;2022-10-22T00:13:16;15.48;;;8.63;;
71202;SDS011;58929;47.490;19.090;2022-10-22T00:15:44;17.60;;;9.07;;
71202;SDS011;58929;47.490;19.090;2022-10-22T00:18:12;13.90;;;8.57;;
71202;SDS011;58929;47.490;19.090;2022-10-22T00:20:40;15.50;;;8.50;;
71202;SDS011;58929;47.490;19.090;2022-10-22T00:23:08;16.27;;;8.80;;
71202;SDS011;58929;47.490;19.090;2022-10-22T00:25:36;14.32;;;8.65;;
71202;SDS011;58929;47.490;19.090;2022-10-22T00:28:05;12.25;;;8.45;;
71202;SDS011;58929;47.490;19.090;2022-10-22T00:30:33;15.45;;;8.82;;
71202;SDS011;58929;47.490;19.090;2022-10-22T00:33:01;17.92;;;8.75;;
71202;SDS011;58929;47.490;19.090;2022-10-22T00:35:29;14.52;;;8.27;;
71202;SDS011;58929;47.490;19.090;2022-10-22T00:37:57;13.55;;;8.73;;
71202;SDS011;58929;47.490;19.090;2022-10-22T00:42:53;14.85;;;7.97;;
71202;SDS011;58929;47.490;19.090;2022-10-22T00:45:23;14.63;;;8.00;;
71202;SDS011;58929;47.490;19.090;2022-10-22T00:47:52;15.88;;;8.38;;
71202;SDS011;58929;47.490;19.090;2022-10-22T00:50:22;15.32;;;8.70;;
71202;SDS011;58929;47.490;19.090;2022-10-22T00:52:51;16.23;;;8.90;;
71202;SDS011;58929;47.490;19.090;2022-10-22T00:55:19;13.35;;;8.02;;
71202;SDS011;58929;47.490;19.090;2022-10-22T00:57:47;11.73;;;7.93;;
71202;SDS011;58929;47.490;19.090;2022-10-22T01:00:15;17.13;;;9.10;;
71202;SDS011;58929;47.490;19.090;2022-10-22T01:02:44;13.02;;;8.82;;
71202;SDS011;58929;47.490;19.090;2022-10-22T01:05:13;12.63;;;7.85;;
71202;SDS011;58929;47.490;19.090;2022-10-22T01:07:43;14.35;;;8.13;;
71202;SDS011;58929;47.490;19.090;2022-10-22T01:10:14;14.65;;;8.48;;
71202;SDS011;58929;47.490;19.090;2022-10-22T01:12:46;15.80;;;9.23;;
71202;SDS011;58929;47.490;19.090;2022-10-22T01:15:18;13.10;;;8.38;;
71202;SDS011;58929;47.490;19.090;2022-10-22T01:17:52;21.02;;;9.30;;
71202;SDS011;58929;47.490;19.090;2022-10-22T01:20:29;14.65;;;8.70;;
71202;SDS011;58929;47.490;19.090;2022-10-22T01:23:01;12.32;;;8.32;;
71202;SDS011;58929;47.490;19.090;2022-10-22T01:25:33;18.13;;;8.90;;
71202;SDS011;58929;47.490;19.090;2022-10-22T01:28:05;19.08;;;8.30;;
71202;SDS011;58929;47.490;19.090;2022-10-22T01:30:37;12.13;;;8.25;;
71202;SDS011;58929;47.490;19.090;2022-10-22T01:33:09;12.25;;;7.88;;
71202;SDS011;58929;47.490;19.090;2022-10-22T01:35:39;16.33;;;7.90;;
71202;SDS011;58929;47.490;19.090;2022-10-22T01:38:10;14.82;;;8.50;;
71202;SDS011;58929;47.490;19.090;2022-10-22T01:40:39;13.40;;;8.10;;
71202;SDS011;58929;47.490;19.090;2022-10-22T01:43:08;13.45;;;8.27;;
71202;SDS011;58929;47.490;19.090;2022-10-22T01:45:38;15.52;;;8.82;;
71202;SDS011;58929;47.490;19.090;2022-10-22T01:48:08;14.15;;;7.85;;
71202;SDS011;58929;47.490;19.090;2022-10-22T01:50:49;12.50;;;7.53;;
71202;SDS011;58929;47.490;19.090;2022-10-22T01:53:24;11.20;;;7.68;;
71202;SDS011;58929;47.490;19.090;2022-10-22T01:56:02;15.75;;;7.93;;
71202;SDS011;58929;47.490;19.090;2022-10-22T01:58:36;15.65;;;8.15;;
71202;SDS011;58929;47.490;19.090;2022-10-22T02:01:10;15.27;;;7.97;;
71202;SDS011;58929;47.490;19.090;2022-10-22T02:03:41;11.38;;;8.07;;
71202;SDS011;58929;47.490;19.090;2022-10-22T02:06:13;12.73;;;7.55;;
71202;SDS011;58929;47.490;19.090;2022-10-22T02:08:42;11.73;;;8.00;;
71202;SDS011;58929;47.490;19.090;2022-10-22T02:11:12;14.77;;;7.93;;
71202;SDS011;58929;47.490;19.090;2022-10-22T02:13:40;13.65;;;8.27;;
71202;SDS011;58929;47.490;19.090;2022-10-22T02:16:14;12.65;;;8.60;;
71202;SDS011;58929;47.490;19.090;2022-10-22T02:18:44;18.20;;;8.90;;
71202;SDS011;58929;47.490;19.090;2022-10-22T02:21:13;11.52;;;8.57;;
71202;SDS011;58929;47.490;19.090;2022-10-22T02:23:41;12.38;;;7.40;;
71202;SDS011;58929;47.490;19.090;2022-10-22T02:26:10;13.40;;;7.63;;
71202;SDS011;58929;47.490;19.090;2022-10-22T02:28:43;13.10;;;8.48;;
71202;SDS011;58929;47.490;19.090;2022-10-22T02:31:15;13.40;;;8.57;;
71202;SDS011;58929;47.490;19.090;2022-10-22T02:33:46;12.88;;;8.48;;
71202;SDS011;58929;47.490;19.090;2022-10-22T02:36:17;17.10;;;8.75;;
71202;SDS011;58929;47.490;19.090;2022-10-22T02:38:46;13.32;;;9.05;;
71202;SDS011;58929;47.490;19.090;2022-10-22T02:41:15;16.45;;;9.00;;
71202;SDS011;58929;47.490;19.090;2022-10-22T02:43:48;10.52;;;7.78;;
71202;SDS011;58929;47.490;19.090;2022-10-22T02:46:17;17.40;;;8.25;;
71202;SDS011;58929;47.490;19.090;2022-10-22T02:48:45;14.60;;;8.55;;
71202;SDS011;58929;47.490;19.090;2022-10-22T02:51:14;18.38;;;9.20;;
71202;SDS011;58929;47.490;19.090;2022-10-22T02:53:42;15.48;;;9.35;;
71202;SDS011;58929;47.490;19.090;2022-10-22T02:56:10;12.10;;;8.48;;
71202;SDS011;58929;47.490;19.090;2022-10-22T02:58:38;14.40;;;8.48;;
71202;SDS011;58929;47.490;19.090;2022-10-22T03:01:05;13.55;;;8.45;;
71202;SDS011;58929;47.490;19.090;2022-10-22T03:03:39;11.85;;;8.38;;
71202;SDS011;58929;47.490;19.090;2022-10-22T03:06:09;18.13;;;8.65;;
71202;SDS011;58929;47.490;19.090;2022-10-22T03:08:37;15.55;;;8.05;;
71202;SDS011;58929;47.490;19.090;2022-10-22T03:11:05;11.68;;;7.88;;
71202;SDS011;58929;47.490;19.090;2022-10-22T03:13:34;14.48;;;9.00;;
71202;SDS011;58929;47.490;19.090;2022-10-22T03:16:02;14.18;;;8.52;;
71202;SDS011;58929;47.490;19.090;2022-10-22T03:18:30;16.23;;;8.35;;
71202;SDS011;58929;47.490;19.090;2022-10-22T03:23:26;17.33;;;9.13;;
71202;SDS011;58929;47.490;19.090;2022-10-22T03:25:54;16.48;;;9.05;;
71202;SDS011;58929;47.490;19.090;2022-10-22T03:28:28;13.38;;;8.68;;
71202;SDS011;58929;47.490;19.090;2022-10-22T03:30:56;15.60;;;10.35;;
71202;SDS011;58929;47.490;19.090;2022-10-22T03:33:23;20.70;;;10.15;;
71202;SDS011;58929;47.490;19.090;2022-10-22T03:35:51;13.65;;;9.20;;
71202;SDS011;58929;47.490;19.090;2022-10-22T03:38:19;14.43;;;9.73;;
71202;SDS011;58929;47.490;19.090;2022-10-22T03:40:49;17.42;;;9.52;;
71202;SDS011;58929;47.490;19.090;2022-10-22T03:43:17;17.70;;;9.77;;
71202;SDS011;58929;47.490;19.090;2022-10-22T03:48:12;18.92;;;9.40;;
71202;SDS011;58929;47.490;19.090;2022-10-22T03:53:07;19.85;;;9.02;;
71202;SDS011;58929;47.490;19.090;2022-10-22T03:55:36;17.27;;;8.82;;
71202;SDS011;58929;47.490;19.090;2022-10-22T03:58:06;14.32;;;9.15;;
71202;SDS011;58929;47.490;19.090;2022-10-22T04:00:34;15.38;;;9.63;;
71202;SDS011;58929;47.490;19.090;2022-10-22T04:03:02;19.17;;;9.35;;
71202;SDS011;58929;47.490;19.090;2022-10-22T04:05:30;14.05;;;8.60;;
71202;SDS011;58929;47.490;19.090;2022-10-22T04:08:00;17.15;;;9.38;;
71202;SDS011;58929;47.490;19.090;2022-10-22T04:12:55;12.35;;;9.18;;
71202;SDS011;58929;47.490;19.090;2022-10-22T04:17:55;18.08;;;9.30;;
71202;SDS011;58929;47.490;19.090;2022-10-22T04:20:23;13.75;;;8.82;;
71202;SDS011;58929;47.490;19.090;2022-10-22T04:25:19;13.73;;;8.67;;
71202;SDS011;58929;47.490;19.090;2022-10-22T04:27:47;14.73;;;9.38;;
71202;SDS011;58929;47.490;19.090;2022-10-22T04:30:15;16.40;;;8.77;;
71202;SDS011;58929;47.490;19.090;2022-10-22T04:32:45;17.05;;;9.10;;
71202;SDS011;58929;47.490;19.090;2022-10-22T04:35:14;15.30;;;9.50;;
71202;SDS011;58929;47.490;19.090;2022-10-22T04:37:42;11.98;;;8.65;;
71202;SDS011;58929;47.490;19.090;2022-10-22T04:40:10;14.30;;;9.85;;
71202;SDS011;58929;47.490;19.090;2022-10-22T04:42:38;18.33;;;10.15;;
71202;SDS011;58929;47.490;19.090;2022-10-22T04:45:07;18.80;;;9.45;;
71202;SDS011;58929;47.490;19.090;2022-10-22T04:47:35;21.05;;;9.52;;
71202;SDS011;58929;47.490;19.090;2022-10-22T04:50:03;17.58;;;10.02;;
71202;SDS011;58929;47.490;19.090;2022-10-22T04:52:32;16.00;;;9.35;;
71202;SDS011;58929;47.490;19.090;2022-10-22T04:55:00;19.65;;;10.25;;
71202;SDS011;58929;47.490;19.090;2022-10-22T04:57:30;25.85;;;9.70;;
71202;SDS011;58929;47.490;19.090;2022-10-22T04:59:58;45.78;;;24.95;;
71202;SDS011;58929;47.490;19.090;2022-10-22T05:02:29;62.88;;;34.58;;
71202;SDS011;58929;47.490;19.090;2022-10-22T05:04:57;25.05;;;14.95;;
71202;SDS011;58929;47.490;19.090;2022-10-22T05:07:25;18.55;;;11.18;;
71202;SDS011;58929;47.490;19.090;2022-10-22T05:09:54;19.23;;;9.52;;
71202;SDS011;58929;47.490;19.090;2022-10-22T05:12:22;14.48;;;9.73;;
71202;SDS011;58929;47.490;19.090;2022-10-22T05:14:51;17.90;;;10.10;;
71202;SDS011;58929;47.490;19.090;2022-10-22T05:17:19;17.77;;;10.43;;
71202;SDS011;58929;47.490;19.090;2022-10-22T05:19:47;17.98;;;10.25;;
71202;SDS011;58929;47.490;19.090;2022-10-22T05:22:14;19.05;;;9.93;;
71202;SDS011;58929;47.490;19.090;2022-10-22T05:24:43;15.88;;;10.80;;
71202;SDS011;58929;47.490;19.090;2022-10-22T05:27:12;20.63;;;10.00;;
71202;SDS011;58929;47.490;19.090;2022-10-22T05:29:40;21.55;;;10.88;;
71202;SDS011;58929;47.490;19.090;2022-10-22T05:34:35;18.55;;;10.43;;
71202;SDS011;58929;47.490;19.090;2022-10-22T05:37:03;23.27;;;12.15;;
71202;SDS011;58929;47.490;19.090;2022-10-22T05:42:02;18.73;;;10.45;;
71202;SDS011;58929;47.490;19.090;2022-10-22T05:44:31;19.08;;;10.70;;
71202;SDS011;58929;47.490;19.090;2022-10-22T05:46:59;24.02;;;11.05;;
71202;SDS011;58929;47.490;19.090;2022-10-22T05:51:54;17.98;;;11.45;;
71202;SDS011;58929;47.490;19.090;2022-10-22T05:54:22;20.67;;;10.57;;
71202;SDS011;58929;47.490;19.090;2022-10-22T05:56:50;19.70;;;10.88;;
71202;SDS011;58929;47.490;19.090;2022-10-22T06:01:47;21.20;;;11.65;;
71202;SDS011;58929;47.490;19.090;2022-10-22T06:04:15;16.02;;;10.77;;
71202;SDS011;58929;47.490;19.090;2022-10-22T06:06:44;16.75;;;10.35;;
71202;SDS011;58929;47.490;19.090;2022-10-22T06:09:13;20.95;;;10.90;;
71202;SDS011;58929;47.490;19.090;2022-10-22T06:11:43;58.55;;;30.30;;
71202;SDS011;58929;47.490;19.090;2022-10-22T06:14:11;28.23;;;12.60;;
71202;SDS011;58929;47.490;19.090;2022-10-22T06:16:39;16.50;;;10.93;;
71202;SDS011;58929;47.490;19.090;2022-10-22T06:19:08;14.18;;;10.63;;
71202;SDS011;58929;47.490;19.090;2022-10-22T06:21:36;17.88;;;10.20;;
71202;SDS011;58929;47.490;19.090;2022-10-22T06:24:04;22.95;;;10.95;;
71202;SDS011;58929;47.490;19.090;2022-10-22T06:26:32;23.83;;;11.60;;
71202;SDS011;58929;47.490;19.090;2022-10-22T06:31:31;23.55;;;10.93;;
71202;SDS011;58929;47.490;19.090;2022-10-22T06:34:02;24.23;;;11.88;;
71202;SDS011;58929;47.490;19.090;2022-10-22T06:36:32;19.10;;;10.27;;
71202;SDS011;58929;47.490;19.090;2022-10-22T06:39:00;17.17;;;10.90;;
71202;SDS011;58929;47.490;19.090;2022-10-22T06:41:29;19.58;;;11.20;;
71202;SDS011;58929;47.490;19.090;2022-10-22T06:43:57;14.23;;;10.30;;
71202;SDS011;58929;47.490;19.090;2022-10-22T06:46:25;16.35;;;10.02;;
71202;SDS011;58929;47.490;19.090;2022-10-22T06:48:55;18.45;;;10.48;;
71202;SDS011;58929;47.490;19.090;2022-10-22T06:51:23;14.50;;;10.35;;
71202;SDS011;58929;47.490;19.090;2022-10-22T06:53:52;16.45;;;9.40;;
71202;SDS011;58929;47.490;19.090;2022-10-22T06:56:21;13.77;;;10.00;;
71202;SDS011;58929;47.490;19.090;2022-10-22T06:58:50;14.90;;;10.10;;
71202;SDS011;58929;47.490;19.090;2022-10-22T07:01:18;15.18;;;10.80;;
71202;SDS011;58929;47.490;19.090;2022-10-22T07:03:48;30.50;;;16.63;;
71202;SDS011;58929;47.490;19.090;2022-10-22T07:06:16;30.38;;;18.30;;
71202;SDS011;58929;47.490;19.090;2022-10-22T07:08:44;20.77;;;10.85;;
71202;SDS011;58929;47.490;19.090;2022-10-22T07:11:14;18.52;;;11.00;;
71202;SDS011;58929;47.490;19.090;2022-10-22T07:13:42;16.83;;;10.88;;
71202;SDS011;58929;47.490;19.090;2022-10-22T07:16:10;19.05;;;10.55;;
71202;SDS011;58929;47.490;19.090;2022-10-22T07:18:39;19.35;;;12.57;;
71202;SDS011;58929;47.490;19.090;2022-10-22T07:21:07;24.55;;;11.85;;
71202;SDS011;58929;47.490;19.090;2022-10-22T07:23:35;22.25;;;11.27;;
71202;SDS011;58929;47.490;19.090;2022-10-22T07:26:04;16.67;;;10.30;;
71202;SDS011;58929;47.490;19.090;2022-10-22T07:28:36;19.30;;;11.30;;
71202;SDS011;58929;47.490;19.090;2022-10-22T07:31:05;16.92;;;10.32;;
71202;SDS011;58929;47.490;19.090;2022-10-22T07:33:33;19.63;;;10.77;;
71202;SDS011;58929;47.490;19.090;2022-10-22T07:36:02;20.58;;;11.23;;
71202;SDS011;58929;47.490;19.090;2022-10-22T07:38:31;17.65;;;10.77;;
71202;SDS011;58929;47.490;19.090;2022-10-22T07:40:59;23.48;;;12.15;;
71202;SDS011;58929;47.490;19.090;2022-10-22T07:43:27;20.77;;;11.73;;
71202;SDS011;58929;47.490;19.090;2022-10-22T07:45:56;17.35;;;12.23;;
71202;SDS011;58929;47.490;19.090;2022-10-22T07:48:25;17.17;;;11.18;;
71202;SDS011;58929;47.490;19.090;2022-10-22T07:50:55;17.15;;;10.80;;
71202;SDS011;58929;47.490;19.090;2022-10-22T07:53:23;19.92;;;12.18;;
71202;SDS011;58929;47.490;19.090;2022-10-22T07:55:51;20.40;;;11.93;;
71202;SDS011;58929;47.490;19.090;2022-10-22T07:58:20;16.55;;;11.07;;
71202;SDS011;58929;47.490;19.090;2022-10-22T08:00:48;22.60;;;12.13;;
71202;SDS011;58929;47.490;19.090;2022-10-22T08:03:17;18.42;;;12.10;;
71202;SDS011;58929;47.490;19.090;2022-10-22T08:05:45;18.80;;;12.63;;
71202;SDS011;58929;47.490;19.090;2022-10-22T08:08:14;22.08;;;11.63;;
71202;SDS011;58929;47.490;19.090;2022-10-22T08:10:42;20.85;;;12.80;;
71202;SDS011;58929;47.490;19.090;2022-10-22T08:13:10;18.17;;;12.90;;
71202;SDS011;58929;47.490;19.090;2022-10-22T08:15:38;29.48;;;14.77;;
71202;SDS011;58929;47.490;19.090;2022-10-22T08:18:08;27.08;;;13.13;;
71202;SDS011;58929;47.490;19.090;2022-10-22T08:20:38;25.95;;;13.48;;
71202;SDS011;58929;47.490;19.090;2022-10-22T08:23:06;28.13;;;13.77;;
71202;SDS011;58929;47.490;19.090;2022-10-22T08:25:34;24.65;;;12.45;;
71202;SDS011;58929;47.490;19.090;2022-10-22T08:28:02;27.08;;;13.65;;
71202;SDS011;58929;47.490;19.090;2022-10-22T08:30:30;21.23;;;12.43;;
71202;SDS011;58929;47.490;19.090;2022-10-22T08:32:59;25.48;;;12.15;;
71202;SDS011;58929;47.490;19.090;2022-10-22T08:35:27;23.08;;;11.50;;
71202;SDS011;58929;47.490;19.090;2022-10-22T08:37:57;21.02;;;12.15;;
71202;SDS011;58929;47.490;19.090;2022-10-22T08:40:27;29.38;;;12.48;;
71202;SDS011;58929;47.490;19.090;2022-10-22T08:43:04;23.83;;;12.55;;
71202;SDS011;58929;47.490;19.090;2022-10-22T08:45:37;20.95;;;11.60;;
71202;SDS011;58929;47.490;19.090;2022-10-22T08:48:09;18.63;;;12.07;;
71202;SDS011;58929;47.490;19.090;2022-10-22T08:50:40;25.17;;;11.85;;
71202;SDS011;58929;47.490;19.090;2022-10-22T08:53:13;17.27;;;11.80;;
71202;SDS011;58929;47.490;19.090;2022-10-22T08:55:42;23.23;;;12.82;;
71202;SDS011;58929;47.490;19.090;2022-10-22T08:58:13;22.27;;;13.68;;
71202;SDS011;58929;47.490;19.090;2022-10-22T09:00:46;25.17;;;13.65;;
71202;SDS011;58929;47.490;19.090;2022-10-22T09:03:23;18.50;;;12.15;;
71202;SDS011;58929;47.490;19.090;2022-10-22T09:05:54;21.42;;;12.75;;
71202;SDS011;58929;47.490;19.090;2022-10-22T09:08:24;18.17;;;12.20;;
71202;SDS011;58929;47.490;19.090;2022-10-22T09:10:53;21.30;;;12.25;;
71202;SDS011;58929;47.490;19.090;2022-10-22T09:13:30;22.77;;;13.70;;
71202;SDS011;58929;47.490;19.090;2022-10-22T09:15:59;25.70;;;13.02;;
71202;SDS011;58929;47.490;19.090;2022-10-22T09:18:30;21.65;;;13.32;;
71202;SDS011;58929;47.490;19.090;2022-10-22T09:21:01;19.88;;;13.43;;
71202;SDS011;58929;47.490;19.090;2022-10-22T09:23:34;26.33;;;13.98;;
71202;SDS011;58929;47.490;19.090;2022-10-22T09:26:07;78.38;;;44.50;;
71202;SDS011;58929;47.490;19.090;2022-10-22T09:28:39;27.38;;;14.57;;
71202;SDS011;58929;47.490;19.090;2022-10-22T09:31:09;22.02;;;13.00;;
71202;SDS011;58929;47.490;19.090;2022-10-22T09:33:38;18.27;;;12.50;;
71202;SDS011;58929;47.490;19.090;2022-10-22T09:36:06;24.65;;;14.00;;
71202;SDS011;58929;47.490;19.090;2022-10-22T09:38:39;24.80;;;13.10;;
71202;SDS011;58929;47.490;19.090;2022-10-22T09:41:07;20.33;;;12.75;;
71202;SDS011;58929;47.490;19.090;2022-10-22T09:43:36;21.63;;;12.15;;
71202;SDS011;58929;47.490;19.090;2022-10-22T09:46:23;19.02;;;12.43;;
71202;SDS011;58929;47.490;19.090;2022-10-22T09:48:56;25.85;;;13.23;;
71202;SDS011;58929;47.490;19.090;2022-10-22T09:51:34;25.10;;;14.23;;
71202;SDS011;58929;47.490;19.090;2022-10-22T09:54:11;22.63;;;14.63;;
71202;SDS011;58929;47.490;19.090;2022-10-22T09:56:40;25.83;;;14.45;;
71202;SDS011;58929;47.490;19.090;2022-10-22T09:59:11;20.52;;;13.27;;
71202;SDS011;58929;47.490;19.090;2022-10-22T10:01:41;24.40;;;14.10;;
71202;SDS011;58929;47.490;19.090;2022-10-22T10:04:11;23.42;;;14.02;;
71202;SDS011;58929;47.490;19.090;2022-10-22T10:06:39;24.77;;;13.40;;
71202;SDS011;58929;47.490;19.090;2022-10-22T10:09:12;21.48;;;12.38;;
71202;SDS011;58929;47.490;19.090;2022-10-22T10:11:45;22.95;;;12.95;;
71202;SDS011;58929;47.490;19.090;2022-10-22T10:14:17;20.83;;;13.48;;
71202;SDS011;58929;47.490;19.090;2022-10-22T10:16:51;20.60;;;13.63;;
71202;SDS011;58929;47.490;19.090;2022-10-22T10:19:30;30.23;;;15.18;;
71202;SDS011;58929;47.490;19.090;2022-10-22T10:22:02;18.57;;;13.30;;
71202;SDS011;58929;47.490;19.090;2022-10-22T10:24:36;24.88;;;16.63;;
71202;SDS011;58929;47.490;19.090;2022-10-22T10:27:08;25.05;;;14.68;;
71202;SDS011;58929;47.490;19.090;2022-10-22T10:29:39;30.75;;;18.63;;
71202;SDS011;58929;47.490;19.090;2022-10-22T10:32:21;20.55;;;14.57;;
71202;SDS011;58929;47.490;19.090;2022-10-22T10:34:52;25.55;;;14.95;;
71202;SDS011;58929;47.490;19.090;2022-10-22T10:37:24;33.33;;;15.40;;
71202;SDS011;58929;47.490;19.090;2022-10-22T10:40:06;24.08;;;13.98;;
71202;SDS011;58929;47.490;19.090;2022-10-22T10:42:40;29.05;;;17.67;;
71202;SDS011;58929;47.490;19.090;2022-10-22T10:45:12;28.48;;;18.38;;
71202;SDS011;58929;47.490;19.090;2022-10-22T10:50:25;23.30;;;15.40;;
71202;SDS011;58929;47.490;19.090;2022-10-22T10:52:59;24.10;;;15.40;;
71202;SDS011;58929;47.490;19.090;2022-10-22T10:55:31;29.20;;;15.18;;
71202;SDS011;58929;47.490;19.090;2022-10-22T10:58:02;26.83;;;15.18;;
71202;SDS011;58929;47.490;19.090;2022-10-22T11:00:33;29.35;;;16.33;;
71202;SDS011;58929;47.490;19.090;2022-10-22T11:03:14;26.00;;;16.13;;
71202;SDS011;58929;47.490;19.090;2022-10-22T11:05:51;28.60;;;14.35;;
71202;SDS011;58929;47.490;19.090;2022-10-22T11:08:21;30.13;;;14.95;;
71202;SDS011;58929;47.490;19.090;2022-10-22T11:10:53;26.73;;;16.30;;
71202;SDS011;58929;47.490;19.090;2022-10-22T11:13:23;27.08;;;16.10;;
71202;SDS011;58929;47.490;19.090;2022-10-22T11:15:55;26.92;;;15.32;;
71202;SDS011;58929;47.490;19.090;2022-10-22T11:18:26;28.45;;;16.15;;
71202;SDS011;58929;47.490;19.090;2022-10-22T11:23:50;22.83;;;14.68;;
71202;SDS011;58929;47.490;19.090;2022-10-22T11:26:26;29.70;;;16.55;;
71202;SDS011;58929;47.490;19.090;2022-10-22T11:28:55;32.75;;;20.13;;
71202;SDS011;58929;47.490;19.090;2022-10-22T11:31:25;21.67;;;16.13;;
71202;SDS011;58929;47.490;19.090;2022-10-22T11:33:59;23.77;;;17.08;;
71202;SDS011;58929;47.490;19.090;2022-10-22T11:36:51;24.67;;;15.88;;
71202;SDS011;58929;47.490;19.090;2022-10-22T11:39:33;25.73;;;15.63;;
71202;SDS011;58929;47.490;19.090;2022-10-22T11:42:04;34.00;;;16.73;;
71202;SDS011;58929;47.490;19.090;2022-10-22T11:44:44;28.13;;;16.52;;
71202;SDS011;58929;47.490;19.090;2022-10-22T11:47:16;31.35;;;16.80;;
71202;SDS011;58929;47.490;19.090;2022-10-22T11:49:45;25.23;;;15.60;;
71202;SDS011;58929;47.490;19.090;2022-10-22T11:52:23;28.30;;;15.93;;
71202;SDS011;58929;47.490;19.090;2022-10-22T11:54:54;28.77;;;16.13;;
71202;SDS011;58929;47.490;19.090;2022-10-22T11:57:28;24.58;;;16.88;;
71202;SDS011;58929;47.490;19.090;2022-10-22T12:00:05;27.67;;;16.83;;
71202;SDS011;58929;47.490;19.090;2022-10-22T12:02:38;24.38;;;17.42;;
71202;SDS011;58929;47.490;19.090;2022-10-22T12:08:01;22.80;;;15.20;;
71202;SDS011;58929;47.490;19.090;2022-10-22T12:10:33;31.85;;;16.35;;
71202;SDS011;58929;47.490;19.090;2022-10-22T12:13:04;24.13;;;15.35;;
71202;SDS011;58929;47.490;19.090;2022-10-22T12:15:44;22.67;;;14.55;;
71202;SDS011;58929;47.490;19.090;2022-10-22T12:18:13;24.88;;;14.95;;
71202;SDS011;58929;47.490;19.090;2022-10-22T12:20:41;19.25;;;14.27;;
71202;SDS011;58929;47.490;19.090;2022-10-22T12:23:09;29.15;;;14.60;;
71202;SDS011;58929;47.490;19.090;2022-10-22T12:25:38;28.35;;;14.30;;
71202;SDS011;58929;47.490;19.090;2022-10-22T12:28:09;21.83;;;14.18;;
71202;SDS011;58929;47.490;19.090;2022-10-22T12:30:37;26.20;;;14.20;;
71202;SDS011;58929;47.490;19.090;2022-10-22T12:33:15;21.27;;;13.38;;
71202;SDS011;58929;47.490;19.090;2022-10-22T12:35:45;21.67;;;14.88;;
71202;SDS011;58929;47.490;19.090;2022-10-22T12:38:14;28.35;;;14.98;;
71202;SDS011;58929;47.490;19.090;2022-10-22T12:40:42;22.83;;;15.25;;
71202;SDS011;58929;47.490;19.090;2022-10-22T12:43:16;27.13;;;16.13;;
71202;SDS011;58929;47.490;19.090;2022-10-22T12:45:45;27.48;;;15.65;;
71202;SDS011;58929;47.490;19.090;2022-10-22T12:48:14;23.23;;;15.73;;
71202;SDS011;58929;47.490;19.090;2022-10-22T12:50:43;26.42;;;15.20;;
71202;SDS011;58929;47.490;19.090;2022-10-22T12:53:12;20.33;;;14.55;;
71202;SDS011;58929;47.490;19.090;2022-10-22T12:55:44;26.70;;;14.60;;
71202;SDS011;58929;47.490;19.090;2022-10-22T12:58:13;22.40;;;15.45;;
71202;SDS011;58929;47.490;19.090;2022-10-22T13:00:44;26.23;;;17.60;;
71202;SDS011;58929;47.490;19.090;2022-10-22T13:03:27;24.92;;;17.70;;
71202;SDS011;58929;47.490;19.090;2022-10-22T13:05:55;28.23;;;16.23;;
71202;SDS011;58929;47.490;19.090;2022-10-22T13:08:25;24.02;;;15.73;;
71202;SDS011;58929;47.490;19.090;2022-10-22T13:10:54;29.13;;;16.40;;
71202;SDS011;58929;47.490;19.090;2022-10-22T13:13:32;23.85;;;16.25;;
71202;SDS011;58929;47.490;19.090;2022-10-22T13:16:17;27.67;;;17.15;;
71202;SDS011;58929;47.490;19.090;2022-10-22T13:18:47;31.95;;;16.80;;
71202;SDS011;58929;47.490;19.090;2022-10-22T13:21:22;29.67;;;17.58;;
71202;SDS011;58929;47.490;19.090;2022-10-22T13:23:54;33.85;;;18.30;;
71202;SDS011;58929;47.490;19.090;2022-10-22T13:26:23;25.33;;;16.65;;
71202;SDS011;58929;47.490;19.090;2022-10-22T13:28:52;32.08;;;17.55;;
71202;SDS011;58929;47.490;19.090;2022-10-22T13:31:23;27.27;;;17.75;;
71202;SDS011;58929;47.490;19.090;2022-10-22T13:33:52;36.75;;;19.05;;
71202;SDS011;58929;47.490;19.090;2022-10-22T13:36:21;32.30;;;18.00;;
71202;SDS011;58929;47.490;19.090;2022-10-22T13:38:50;33.42;;;17.65;;
71202;SDS011;58929;47.490;19.090;2022-10-22T13:41:21;26.95;;;18.38;;
71202;SDS011;58929;47.490;19.090;2022-10-22T13:43:49;31.10;;;17.15;;
71202;SDS011;58929;47.490;19.090;2022-10-22T13:46:17;38.05;;;16.05;;
71202;SDS011;58929;47.490;19.090;2022-10-22T13:48:47;29.85;;;17.48;;
71202;SDS011;58929;47.490;19.090;2022-10-22T13:51:16;31.95;;;16.73;;
71202;SDS011;58929;47.490;19.090;2022-10-22T13:53:44;32.58;;;18.48;;
71202;SDS011;58929;47.490;19.090;2022-10-22T13:56:13;38.22;;;17.88;;
71202;SDS011;58929;47.490;19.090;2022-10-22T13:58:42;37.42;;;18.50;;
71202;SDS011;58929;47.490;19.090;2022-10-22T14:01:13;37.67;;;19.90;;
71202;SDS011;58929;47.490;19.090;2022-10-22T14:03:43;32.30;;;18.27;;
71202;SDS011;58929;47.490;19.090;2022-10-22T14:06:13;29.30;;;17.25;;
71202;SDS011;58929;47.490;19.090;2022-10-22T14:08:44;25.67;;;17.88;;
71202;SDS011;58929;47.490;19.090;2022-10-22T14:11:13;30.67;;;17.80;;
71202;SDS011;58929;47.490;19.090;2022-10-22T14:13:41;26.88;;;17.80;;
71202;SDS011;58929;47.490;19.090;2022-10-22T14:16:12;29.02;;;18.02;;
71202;SDS011;58929;47.490;19.090;2022-10-22T14:18:41;33.92;;;17.83;;
71202;SDS011;58929;47.490;19.090;2022-10-22T14:21:09;30.15;;;17.77;;
71202;SDS011;58929;47.490;19.090;2022-10-22T14:23:43;37.33;;;18.60;;
71202;SDS011;58929;47.490;19.090;2022-10-22T14:26:15;28.20;;;16.90;;
71202;SDS011;58929;47.490;19.090;2022-10-22T14:28:46;28.13;;;16.85;;
71202;SDS011;58929;47.490;19.090;2022-10-22T14:31:34;29.53;;;17.80;;
71202;SDS011;58929;47.490;19.090;2022-10-22T14:34:03;33.22;;;17.40;;
71202;SDS011;58929;47.490;19.090;2022-10-22T14:36:31;41.67;;;17.77;;
71202;SDS011;58929;47.490;19.090;2022-10-22T14:39:00;31.50;;;18.88;;
71202;SDS011;58929;47.490;19.090;2022-10-22T14:41:28;31.92;;;19.23;;
71202;SDS011;58929;47.490;19.090;2022-10-22T14:43:57;31.88;;;17.95;;
71202;SDS011;58929;47.490;19.090;2022-10-22T14:46:25;33.95;;;18.85;;
71202;SDS011;58929;47.490;19.090;2022-10-22T14:48:54;26.65;;;16.40;;
71202;SDS011;58929;47.490;19.090;2022-10-22T14:51:21;33.10;;;18.00;;
71202;SDS011;58929;47.490;19.090;2022-10-22T14:53:49;31.58;;;16.52;;
71202;SDS011;58929;47.490;19.090;2022-10-22T14:56:19;31.63;;;16.52;;
71202;SDS011;58929;47.490;19.090;2022-10-22T14:58:47;30.08;;;16.80;;
71202;SDS011;58929;47.490;19.090;2022-10-22T15:01:16;26.23;;;16.05;;
71202;SDS011;58929;47.490;19.090;2022-10-22T15:03:44;34.33;;;17.10;;
71202;SDS011;58929;47.490;19.090;2022-10-22T15:06:12;32.38;;;17.88;;
71202;SDS011;58929;47.490;19.090;2022-10-22T15:08:43;28.83;;;16.48;;
71202;SDS011;58929;47.490;19.090;2022-10-22T15:11:11;28.30;;;16.85;;